Halesite, New York
Current Conditions -  °F | °C
As of 9:39 AM on Monday 26 Jan 2015 (Local Time) from KFRG Reporting Station
Light Snow Light Snow  
Wind Chill: 14°   Ceiling: 2400
Heat Index: 25°   Visibility: 1.7mi
Dew Point: 19°   Wind: 13mph
Humidity: 78%   Direction: 60°ENE
Pressure: 30.01"   Gusts: 22mph
Location:  40.8966°N, 73.4362°W
Report Text: KFRG 261439Z 06011G19KT 1 3/4SM -SN BKN024 OVC035 M04/M07 A3001 RMK AO2 P0000 T10391072
Loading
Personal Weather Stations






























Interactive Weather Map New forecast layout! Learn more

10-Day Weather Forecast

Advertisements
Track Severe Weather on mobile